sensor_id;sensor_type;location;lat;lon;timestamp;pressure;altitude;pressure_sealevel;temperature
68939;BMP180;59064;45.294;11.816;2023-04-25T00:00:47;100688.40;;;10.20
68939;BMP180;59064;45.294;11.816;2023-04-25T00:03:18;100691.80;;;10.20
68939;BMP180;59064;45.294;11.816;2023-04-25T00:05:45;100691.40;;;10.30
68939;BMP180;59064;45.294;11.816;2023-04-25T00:08:11;100686.00;;;10.30
68939;BMP180;59064;45.294;11.816;2023-04-25T00:10:36;100679.60;;;10.40
68939;BMP180;59064;45.294;11.816;2023-04-25T00:13:05;100678.20;;;10.50
68939;BMP180;59064;45.294;11.816;2023-04-25T00:15:31;100674.60;;;10.60
68939;BMP180;59064;45.294;11.816;2023-04-25T00:17:57;100676.80;;;10.60
68939;BMP180;59064;45.294;11.816;2023-04-25T00:20:23;100684.60;;;10.66
68939;BMP180;59064;45.294;11.816;2023-04-25T00:22:50;100685.60;;;10.70
68939;BMP180;59064;45.294;11.816;2023-04-25T00:25:18;100688.00;;;10.70
68939;BMP180;59064;45.294;11.816;2023-04-25T00:27:43;100685.60;;;10.68
68939;BMP180;59064;45.294;11.816;2023-04-25T00:30:09;100678.20;;;10.60
68939;BMP180;59064;45.294;11.816;2023-04-25T00:32:35;100668.80;;;10.60
68939;BMP180;59064;45.294;11.816;2023-04-25T00:35:01;100672.40;;;10.60
68939;BMP180;59064;45.294;11.816;2023-04-25T00:37:30;100666.60;;;10.60
68939;BMP180;59064;45.294;11.816;2023-04-25T00:39:57;100660.20;;;10.60
68939;BMP180;59064;45.294;11.816;2023-04-25T00:42:24;100659.60;;;10.60
68939;BMP180;59064;45.294;11.816;2023-04-25T00:44:52;100648.20;;;10.60
68939;BMP180;59064;45.294;11.816;2023-04-25T00:47:18;100655.20;;;10.60
68939;BMP180;59064;45.294;11.816;2023-04-25T00:49:43;100656.20;;;10.52
68939;BMP180;59064;45.294;11.816;2023-04-25T00:52:10;100656.80;;;10.50
68939;BMP180;59064;45.294;11.816;2023-04-25T00:54:36;100653.80;;;10.50
68939;BMP180;59064;45.294;11.816;2023-04-25T00:57:02;100652.00;;;10.50
68939;BMP180;59064;45.294;11.816;2023-04-25T00:59:28;100649.80;;;10.42
68939;BMP180;59064;45.294;11.816;2023-04-25T01:01:58;100649.40;;;10.40
68939;BMP180;59064;45.294;11.816;2023-04-25T01:04:27;100651.20;;;10.40
68939;BMP180;59064;45.294;11.816;2023-04-25T01:06:54;100645.20;;;10.30
68939;BMP180;59064;45.294;11.816;2023-04-25T01:09:19;100643.60;;;10.30
68939;BMP180;59064;45.294;11.816;2023-04-25T01:11:47;100640.20;;;10.20
68939;BMP180;59064;45.294;11.816;2023-04-25T01:14:16;100640.00;;;10.20
68939;BMP180;59064;45.294;11.816;2023-04-25T01:16:43;100638.60;;;10.20
68939;BMP180;59064;45.294;11.816;2023-04-25T01:19:11;100640.60;;;10.10
68939;BMP180;59064;45.294;11.816;2023-04-25T01:21:37;100646.60;;;10.10
68939;BMP180;59064;45.294;11.816;2023-04-25T01:24:03;100649.00;;;10.10
68939;BMP180;59064;45.294;11.816;2023-04-25T01:26:29;100644.40;;;10.10
68939;BMP180;59064;45.294;11.816;2023-04-25T01:28:55;100633.60;;;10.16
68939;BMP180;59064;45.294;11.816;2023-04-25T01:31:22;100631.40;;;10.20
68939;BMP180;59064;45.294;11.816;2023-04-25T01:33:48;100629.20;;;10.20
68939;BMP180;59064;45.294;11.816;2023-04-25T01:36:17;100623.60;;;10.20
68939;BMP180;59064;45.294;11.816;2023-04-25T01:38:43;100622.20;;;10.20
68939;BMP180;59064;45.294;11.816;2023-04-25T01:41:13;100622.80;;;10.20
68939;BMP180;59064;45.294;11.816;2023-04-25T01:43:40;100621.20;;;10.20
68939;BMP180;59064;45.294;11.816;2023-04-25T01:46:06;100621.20;;;10.20
68939;BMP180;59064;45.294;11.816;2023-04-25T01:48:33;100623.00;;;10.20
68939;BMP180;59064;45.294;11.816;2023-04-25T01:50:59;100625.40;;;10.20
68939;BMP180;59064;45.294;11.816;2023-04-25T01:53:25;100622.80;;;10.22
68939;BMP180;59064;45.294;11.816;2023-04-25T01:55:54;100622.40;;;10.26
68939;BMP180;59064;45.294;11.816;2023-04-25T01:58:19;100617.20;;;10.30
68939;BMP180;59064;45.294;11.816;2023-04-25T02:00:48;100619.20;;;10.30
68939;BMP180;59064;45.294;11.816;2023-04-25T02:03:13;100616.40;;;10.30
68939;BMP180;59064;45.294;11.816;2023-04-25T02:05:40;100616.80;;;10.30
68939;BMP180;59064;45.294;11.816;2023-04-25T02:08:08;100615.60;;;10.30
68939;BMP180;59064;45.294;11.816;2023-04-25T02:10:34;100605.20;;;10.30
68939;BMP180;59064;45.294;11.816;2023-04-25T02:13:00;100605.40;;;10.30
68939;BMP180;59064;45.294;11.816;2023-04-25T02:15:26;100601.20;;;10.40
68939;BMP180;59064;45.294;11.816;2023-04-25T02:17:52;100597.80;;;10.40
68939;BMP180;59064;45.294;11.816;2023-04-25T02:20:21;100597.80;;;10.44
68939;BMP180;59064;45.294;11.816;2023-04-25T02:22:47;100595.20;;;10.50
68939;BMP180;59064;45.294;11.816;2023-04-25T02:25:13;100596.80;;;10.50
68939;BMP180;59064;45.294;11.816;2023-04-25T02:27:42;100599.80;;;10.50
68939;BMP180;59064;45.294;11.816;2023-04-25T02:30:08;100608.00;;;10.60
68939;BMP180;59064;45.294;11.816;2023-04-25T02:32:34;100618.40;;;10.60
68939;BMP180;59064;45.294;11.816;2023-04-25T02:35:00;100618.80;;;10.70
68939;BMP180;59064;45.294;11.816;2023-04-25T02:37:30;100622.00;;;10.80
68939;BMP180;59064;45.294;11.816;2023-04-25T02:39:55;100623.40;;;10.90
68939;BMP180;59064;45.294;11.816;2023-04-25T02:42:21;100622.40;;;11.10
68939;BMP180;59064;45.294;11.816;2023-04-25T02:44:47;100620.20;;;11.20
68939;BMP180;59064;45.294;11.816;2023-04-25T02:47:12;100617.60;;;11.24
68939;BMP180;59064;45.294;11.816;2023-04-25T02:49:38;100619.40;;;11.30
68939;BMP180;59064;45.294;11.816;2023-04-25T02:52:03;100620.40;;;11.40
68939;BMP180;59064;45.294;11.816;2023-04-25T02:54:29;100631.20;;;11.40
68939;BMP180;59064;45.294;11.816;2023-04-25T02:57:06;100627.00;;;11.40
68939;BMP180;59064;45.294;11.816;2023-04-25T02:59:33;100624.60;;;11.50
68939;BMP180;59064;45.294;11.816;2023-04-25T03:01:59;100615.60;;;11.50
68939;BMP180;59064;45.294;11.816;2023-04-25T03:04:30;100615.80;;;11.50
68939;BMP180;59064;45.294;11.816;2023-04-25T03:06:56;100608.80;;;11.60
68939;BMP180;59064;45.294;11.816;2023-04-25T03:09:22;100588.60;;;11.60
68939;BMP180;59064;45.294;11.816;2023-04-25T03:11:53;100574.40;;;11.60
68939;BMP180;59064;45.294;11.816;2023-04-25T03:14:18;100575.00;;;11.50
68939;BMP180;59064;45.294;11.816;2023-04-25T03:16:44;100588.80;;;11.48
68939;BMP180;59064;45.294;11.816;2023-04-25T03:19:12;100587.40;;;11.40
68939;BMP180;59064;45.294;11.816;2023-04-25T03:21:48;100581.20;;;11.40
68939;BMP180;59064;45.294;11.816;2023-04-25T03:24:17;100570.80;;;11.40
68939;BMP180;59064;45.294;11.816;2023-04-25T03:26:43;100568.20;;;11.40
68939;BMP180;59064;45.294;11.816;2023-04-25T03:29:12;100559.80;;;11.40
68939;BMP180;59064;45.294;11.816;2023-04-25T03:31:38;100554.60;;;11.40
68939;BMP180;59064;45.294;11.816;2023-04-25T03:34:06;100548.20;;;11.40
68939;BMP180;59064;45.294;11.816;2023-04-25T03:36:35;100544.80;;;11.40
68939;BMP180;59064;45.294;11.816;2023-04-25T03:39:05;100534.20;;;11.44
68939;BMP180;59064;45.294;11.816;2023-04-25T03:41:31;100538.80;;;11.50
68939;BMP180;59064;45.294;11.816;2023-04-25T03:43:59;100540.20;;;11.50
68939;BMP180;59064;45.294;11.816;2023-04-25T03:46:27;100536.00;;;11.50
68939;BMP180;59064;45.294;11.816;2023-04-25T03:48:53;100536.60;;;11.50
68939;BMP180;59064;45.294;11.816;2023-04-25T03:51:22;100537.80;;;11.54
68939;BMP180;59064;45.294;11.816;2023-04-25T03:53:47;100531.40;;;11.60
68939;BMP180;59064;45.294;11.816;2023-04-25T03:56:13;100535.80;;;11.60
68939;BMP180;59064;45.294;11.816;2023-04-25T03:58:44;100531.20;;;11.60
68939;BMP180;59064;45.294;11.816;2023-04-25T04:01:10;100531.80;;;11.60
68939;BMP180;59064;45.294;11.816;2023-04-25T04:03:36;100529.20;;;11.70
68939;BMP180;59064;45.294;11.816;2023-04-25T04:06:04;100531.00;;;11.70
68939;BMP180;59064;45.294;11.816;2023-04-25T04:08:31;100529.00;;;11.80
68939;BMP180;59064;45.294;11.816;2023-04-25T04:11:00;100528.20;;;11.80
68939;BMP180;59064;45.294;11.816;2023-04-25T04:13:27;100526.60;;;11.90
68939;BMP180;59064;45.294;11.816;2023-04-25T04:15:53;100522.80;;;11.90
68939;BMP180;59064;45.294;11.816;2023-04-25T04:18:19;100521.20;;;12.00
68939;BMP180;59064;45.294;11.816;2023-04-25T04:20:44;100515.60;;;12.00
68939;BMP180;59064;45.294;11.816;2023-04-25T04:23:10;100511.00;;;12.00
68939;BMP180;59064;45.294;11.816;2023-04-25T04:25:37;100506.60;;;12.00
68939;BMP180;59064;45.294;11.816;2023-04-25T04:28:03;100510.40;;;12.02
68939;BMP180;59064;45.294;11.816;2023-04-25T04:30:28;100517.60;;;12.10
68939;BMP180;59064;45.294;11.816;2023-04-25T04:32:55;100528.00;;;12.10
68939;BMP180;59064;45.294;11.816;2023-04-25T04:35:27;100537.40;;;12.10
68939;BMP180;59064;45.294;11.816;2023-04-25T04:37:54;100539.80;;;12.10
68939;BMP180;59064;45.294;11.816;2023-04-25T04:40:23;100555.80;;;12.10
68939;BMP180;59064;45.294;11.816;2023-04-25T04:42:54;100572.60;;;12.20
68939;BMP180;59064;45.294;11.816;2023-04-25T04:45:24;100587.40;;;12.10
68939;BMP180;59064;45.294;11.816;2023-04-25T04:48:05;100593.40;;;12.00
68939;BMP180;59064;45.294;11.816;2023-04-25T04:50:31;100602.00;;;11.82
68939;BMP180;59064;45.294;11.816;2023-04-25T04:53:07;100599.40;;;11.74
68939;BMP180;59064;45.294;11.816;2023-04-25T04:55:35;100590.80;;;11.70
68939;BMP180;59064;45.294;11.816;2023-04-25T04:58:01;100575.20;;;11.72
68939;BMP180;59064;45.294;11.816;2023-04-25T05:00:27;100563.40;;;11.92
68939;BMP180;59064;45.294;11.816;2023-04-25T05:02:58;100582.20;;;12.20
68939;BMP180;59064;45.294;11.816;2023-04-25T05:05:26;100577.40;;;12.30
68939;BMP180;59064;45.294;11.816;2023-04-25T05:07:54;100561.60;;;12.40
68939;BMP180;59064;45.294;11.816;2023-04-25T05:10:23;100575.40;;;12.40
68939;BMP180;59064;45.294;11.816;2023-04-25T05:12:49;100578.20;;;12.26
68939;BMP180;59064;45.294;11.816;2023-04-25T05:15:20;100576.40;;;12.16
68939;BMP180;59064;45.294;11.816;2023-04-25T05:17:51;100587.20;;;12.06
68939;BMP180;59064;45.294;11.816;2023-04-25T05:20:20;100593.00;;;12.00
68939;BMP180;59064;45.294;11.816;2023-04-25T05:22:45;100600.00;;;11.94
68939;BMP180;59064;45.294;11.816;2023-04-25T05:25:11;100607.80;;;11.90
68939;BMP180;59064;45.294;11.816;2023-04-25T05:27:38;100614.40;;;11.90
68939;BMP180;59064;45.294;11.816;2023-04-25T05:30:07;100625.40;;;11.90
68939;BMP180;59064;45.294;11.816;2023-04-25T05:32:34;100629.60;;;11.90
68939;BMP180;59064;45.294;11.816;2023-04-25T05:34:59;100627.60;;;11.82
68939;BMP180;59064;45.294;11.816;2023-04-25T05:37:26;100633.20;;;11.78
68939;BMP180;59064;45.294;11.816;2023-04-25T05:39:52;100636.60;;;11.70
68939;BMP180;59064;45.294;11.816;2023-04-25T05:42:18;100639.00;;;11.60
68939;BMP180;59064;45.294;11.816;2023-04-25T05:44:44;100630.80;;;11.60
68939;BMP180;59064;45.294;11.816;2023-04-25T05:47:16;100622.40;;;11.58
68939;BMP180;59064;45.294;11.816;2023-04-25T05:49:42;100627.60;;;11.60
68939;BMP180;59064;45.294;11.816;2023-04-25T05:52:10;100618.60;;;11.60
68939;BMP180;59064;45.294;11.816;2023-04-25T05:54:36;100616.60;;;11.62
68939;BMP180;59064;45.294;11.816;2023-04-25T05:57:04;100608.80;;;11.70
68939;BMP180;59064;45.294;11.816;2023-04-25T05:59:30;100594.40;;;11.70
68939;BMP180;59064;45.294;11.816;2023-04-25T06:01:55;100593.20;;;11.70
68939;BMP180;59064;45.294;11.816;2023-04-25T06:04:25;100581.40;;;11.70
68939;BMP180;59064;45.294;11.816;2023-04-25T06:06:53;100576.20;;;11.70
68939;BMP180;59064;45.294;11.816;2023-04-25T06:09:19;100576.00;;;11.70
68939;BMP180;59064;45.294;11.816;2023-04-25T06:11:46;100582.40;;;11.70
68939;BMP180;59064;45.294;11.816;2023-04-25T06:14:11;100579.80;;;11.70
68939;BMP180;59064;45.294;11.816;2023-04-25T06:16:42;100574.80;;;11.68
68939;BMP180;59064;45.294;11.816;2023-04-25T06:19:10;100558.40;;;11.60
68939;BMP180;59064;45.294;11.816;2023-04-25T06:21:41;100556.80;;;11.70
68939;BMP180;59064;45.294;11.816;2023-04-25T06:24:07;100555.00;;;11.70
68939;BMP180;59064;45.294;11.816;2023-04-25T06:26:33;100541.60;;;11.64
68939;BMP180;59064;45.294;11.816;2023-04-25T06:29:01;100557.20;;;11.60
68939;BMP180;59064;45.294;11.816;2023-04-25T06:31:31;100559.40;;;11.60
68939;BMP180;59064;45.294;11.816;2023-04-25T06:33:58;100555.80;;;11.60
68939;BMP180;59064;45.294;11.816;2023-04-25T06:36:23;100561.80;;;11.60
68939;BMP180;59064;45.294;11.816;2023-04-25T06:38:51;100566.20;;;11.60
68939;BMP180;59064;45.294;11.816;2023-04-25T06:41:17;100574.60;;;11.60
68939;BMP180;59064;45.294;11.816;2023-04-25T06:43:46;100569.00;;;11.58
68939;BMP180;59064;45.294;11.816;2023-04-25T06:46:12;100570.20;;;11.52
68939;BMP180;59064;45.294;11.816;2023-04-25T06:48:38;100580.20;;;11.50
68939;BMP180;59064;45.294;11.816;2023-04-25T06:51:06;100565.20;;;11.50
68939;BMP180;59064;45.294;11.816;2023-04-25T06:53:39;100578.60;;;11.50
68939;BMP180;59064;45.294;11.816;2023-04-25T06:56:05;100596.40;;;11.50
68939;BMP180;59064;45.294;11.816;2023-04-25T06:58:31;100601.80;;;11.50
68939;BMP180;59064;45.294;11.816;2023-04-25T07:00:57;100590.40;;;11.48
68939;BMP180;59064;45.294;11.816;2023-04-25T07:03:22;100607.80;;;11.40
68939;BMP180;59064;45.294;11.816;2023-04-25T07:05:49;100621.40;;;11.40
68939;BMP180;59064;45.294;11.816;2023-04-25T07:08:15;100621.20;;;11.30
68939;BMP180;59064;45.294;11.816;2023-04-25T07:10:41;100616.60;;;11.20
68939;BMP180;59064;45.294;11.816;2023-04-25T07:13:06;100626.00;;;11.10
68939;BMP180;59064;45.294;11.816;2023-04-25T07:15:35;100645.80;;;11.00
68939;BMP180;59064;45.294;11.816;2023-04-25T07:18:00;100646.60;;;10.90
68939;BMP180;59064;45.294;11.816;2023-04-25T07:20:27;100645.80;;;10.90
68939;BMP180;59064;45.294;11.816;2023-04-25T07:22:53;100626.80;;;10.80
68939;BMP180;59064;45.294;11.816;2023-04-25T07:25:20;100633.40;;;10.80
68939;BMP180;59064;45.294;11.816;2023-04-25T07:27:45;100641.80;;;10.80
68939;BMP180;59064;45.294;11.816;2023-04-25T07:30:11;100656.40;;;10.70
68939;BMP180;59064;45.294;11.816;2023-04-25T07:32:38;100661.60;;;10.70
68939;BMP180;59064;45.294;11.816;2023-04-25T07:35:03;100665.40;;;10.70
68939;BMP180;59064;45.294;11.816;2023-04-25T07:37:29;100671.80;;;10.68
68939;BMP180;59064;45.294;11.816;2023-04-25T07:39:55;100676.00;;;10.60
68939;BMP180;59064;45.294;11.816;2023-04-25T07:42:26;100682.80;;;10.60
68939;BMP180;59064;45.294;11.816;2023-04-25T07:44:56;100689.80;;;10.60
68939;BMP180;59064;45.294;11.816;2023-04-25T07:47:32;100711.40;;;10.62
68939;BMP180;59064;45.294;11.816;2023-04-25T07:49:58;100715.00;;;10.60
68939;BMP180;59064;45.294;11.816;2023-04-25T07:52:24;100715.60;;;10.58
68939;BMP180;59064;45.294;11.816;2023-04-25T07:54:49;100719.20;;;10.50
68939;BMP180;59064;45.294;11.816;2023-04-25T07:57:15;100719.20;;;10.40
68939;BMP180;59064;45.294;11.816;2023-04-25T07:59:45;100727.80;;;10.30
68939;BMP180;59064;45.294;11.816;2023-04-25T08:02:10;100729.00;;;10.30
68939;BMP180;59064;45.294;11.816;2023-04-25T08:04:36;100740.00;;;10.28
68939;BMP180;59064;45.294;11.816;2023-04-25T08:07:05;100752.60;;;10.20
68939;BMP180;59064;45.294;11.816;2023-04-25T08:09:34;100755.20;;;10.20
68939;BMP180;59064;45.294;11.816;2023-04-25T08:12:01;100756.80;;;10.18
68939;BMP180;59064;45.294;11.816;2023-04-25T08:14:27;100758.40;;;10.10
68939;BMP180;59064;45.294;11.816;2023-04-25T08:16:56;100759.40;;;10.10
68939;BMP180;59064;45.294;11.816;2023-04-25T08:19:25;100765.20;;;10.10
68939;BMP180;59064;45.294;11.816;2023-04-25T08:21:51;100770.60;;;10.10
68939;BMP180;59064;45.294;11.816;2023-04-25T08:24:28;100763.40;;;10.10
68939;BMP180;59064;45.294;11.816;2023-04-25T08:26:57;100761.40;;;10.10
68939;BMP180;59064;45.294;11.816;2023-04-25T08:29:27;100754.20;;;10.10
68939;BMP180;59064;45.294;11.816;2023-04-25T08:31:53;100740.00;;;10.20
68939;BMP180;59064;45.294;11.816;2023-04-25T08:34:19;100732.20;;;10.20
68939;BMP180;59064;45.294;11.816;2023-04-25T08:36:51;100720.60;;;10.20
68939;BMP180;59064;45.294;11.816;2023-04-25T08:39:18;100711.20;;;10.26
68939;BMP180;59064;45.294;11.816;2023-04-25T08:41:56;100698.40;;;10.30
68939;BMP180;59064;45.294;11.816;2023-04-25T08:44:26;100690.20;;;10.20
68939;BMP180;59064;45.294;11.816;2023-04-25T08:46:52;100689.80;;;10.20
68939;BMP180;59064;45.294;11.816;2023-04-25T08:49:25;100667.00;;;10.20
68939;BMP180;59064;45.294;11.816;2023-04-25T08:51:53;100665.00;;;10.20
68939;BMP180;59064;45.294;11.816;2023-04-25T08:54:27;100664.40;;;10.20
68939;BMP180;59064;45.294;11.816;2023-04-25T08:56:54;100653.20;;;10.24
68939;BMP180;59064;45.294;11.816;2023-04-25T08:59:23;100661.60;;;10.28
68939;BMP180;59064;45.294;11.816;2023-04-25T09:01:50;100651.40;;;10.30
68939;BMP180;59064;45.294;11.816;2023-04-25T09:04:17;100651.40;;;10.30
68939;BMP180;59064;45.294;11.816;2023-04-25T09:06:46;100652.60;;;10.36
68939;BMP180;59064;45.294;11.816;2023-04-25T09:09:17;100643.40;;;10.40
68939;BMP180;59064;45.294;11.816;2023-04-25T09:11:43;100653.40;;;10.50
68939;BMP180;59064;45.294;11.816;2023-04-25T09:14:20;100658.20;;;10.60
68939;BMP180;59064;45.294;11.816;2023-04-25T09:19:32;100663.00;;;10.80
68939;BMP180;59064;45.294;11.816;2023-04-25T09:22:04;100665.00;;;10.90
68939;BMP180;59064;45.294;11.816;2023-04-25T09:24:42;100661.00;;;11.00
68939;BMP180;59064;45.294;11.816;2023-04-25T09:27:12;100655.80;;;11.20
68939;BMP180;59064;45.294;11.816;2023-04-25T09:29:40;100655.20;;;11.30
68939;BMP180;59064;45.294;11.816;2023-04-25T09:32:18;100660.80;;;11.48
68939;BMP180;59064;45.294;11.816;2023-04-25T09:34:51;100668.40;;;11.60
68939;BMP180;59064;45.294;11.816;2023-04-25T09:37:27;100664.00;;;11.70
68939;BMP180;59064;45.294;11.816;2023-04-25T09:40:00;100663.60;;;11.90
68939;BMP180;59064;45.294;11.816;2023-04-25T09:42:29;100664.20;;;12.00
68939;BMP180;59064;45.294;11.816;2023-04-25T09:45:17;100659.60;;;12.10
68939;BMP180;59064;45.294;11.816;2023-04-25T09:47:43;100652.60;;;12.10
68939;BMP180;59064;45.294;11.816;2023-04-25T09:50:16;100645.40;;;12.20
68939;BMP180;59064;45.294;11.816;2023-04-25T09:52:44;100637.40;;;12.20
68939;BMP180;59064;45.294;11.816;2023-04-25T09:55:11;100629.40;;;12.20
68939;BMP180;59064;45.294;11.816;2023-04-25T09:57:37;100650.40;;;12.20
68939;BMP180;59064;45.294;11.816;2023-04-25T10:00:08;100643.00;;;12.20
68939;BMP180;59064;45.294;11.816;2023-04-25T10:02:38;100657.40;;;12.20
68939;BMP180;59064;45.294;11.816;2023-04-25T10:05:07;100653.00;;;12.20
68939;BMP180;59064;45.294;11.816;2023-04-25T10:07:37;100663.20;;;12.16
68939;BMP180;59064;45.294;11.816;2023-04-25T10:10:07;100661.40;;;12.20
68939;BMP180;59064;45.294;11.816;2023-04-25T10:12:36;100659.20;;;12.30
68939;BMP180;59064;45.294;11.816;2023-04-25T10:15:06;100656.00;;;12.72
68939;BMP180;59064;45.294;11.816;2023-04-25T10:17:33;100661.20;;;13.14
68939;BMP180;59064;45.294;11.816;2023-04-25T10:20:04;100669.80;;;13.42
68939;BMP180;59064;45.294;11.816;2023-04-25T10:22:44;100658.60;;;13.70
68939;BMP180;59064;45.294;11.816;2023-04-25T10:25:11;100663.60;;;13.76
68939;BMP180;59064;45.294;11.816;2023-04-25T10:27:39;100674.00;;;13.86
68939;BMP180;59064;45.294;11.816;2023-04-25T10:30:10;100684.40;;;13.80
68939;BMP180;59064;45.294;11.816;2023-04-25T10:32:38;100666.20;;;13.94
68939;BMP180;59064;45.294;11.816;2023-04-25T10:35:15;100689.00;;;14.02
68939;BMP180;59064;45.294;11.816;2023-04-25T10:38:04;100678.60;;;13.90
68939;BMP180;59064;45.294;11.816;2023-04-25T10:40:31;100698.60;;;13.68
68939;BMP180;59064;45.294;11.816;2023-04-25T10:46:24;100706.20;;;13.20
68939;BMP180;59064;45.294;11.816;2023-04-25T10:49:00;100704.60;;;13.30
68939;BMP180;59064;45.294;11.816;2023-04-25T10:51:31;100690.00;;;13.38
68939;BMP180;59064;45.294;11.816;2023-04-25T10:54:03;100694.00;;;13.24
68939;BMP180;59064;45.294;11.816;2023-04-25T10:56:49;100702.60;;;13.10
68939;BMP180;59064;45.294;11.816;2023-04-25T10:59:19;100713.60;;;13.10
68939;BMP180;59064;45.294;11.816;2023-04-25T11:01:55;100700.20;;;13.10
68939;BMP180;59064;45.294;11.816;2023-04-25T11:04:33;100698.80;;;13.10
68939;BMP180;59064;45.294;11.816;2023-04-25T11:09:40;100702.00;;;13.44
68939;BMP180;59064;45.294;11.816;2023-04-25T11:12:08;100702.80;;;13.60
68939;BMP180;59064;45.294;11.816;2023-04-25T11:14:37;100709.20;;;13.70
68939;BMP180;59064;45.294;11.816;2023-04-25T11:17:14;100706.40;;;13.90
68939;BMP180;59064;45.294;11.816;2023-04-25T11:19:40;100706.40;;;14.30
68939;BMP180;59064;45.294;11.816;2023-04-25T11:22:05;100696.60;;;14.52
68939;BMP180;59064;45.294;11.816;2023-04-25T11:24:34;100700.00;;;14.60
68939;BMP180;59064;45.294;11.816;2023-04-25T11:27:04;100691.00;;;14.60
68939;BMP180;59064;45.294;11.816;2023-04-25T11:29:34;100683.80;;;14.80
68939;BMP180;59064;45.294;11.816;2023-04-25T11:32:03;100680.00;;;14.92
68939;BMP180;59064;45.294;11.816;2023-04-25T11:34:29;100687.40;;;15.00
68939;BMP180;59064;45.294;11.816;2023-04-25T11:36:59;100685.40;;;15.10
68939;BMP180;59064;45.294;11.816;2023-04-25T11:39:26;100692.20;;;15.30
68939;BMP180;59064;45.294;11.816;2023-04-25T11:41:52;100681.00;;;15.50
68939;BMP180;59064;45.294;11.816;2023-04-25T11:44:18;100687.20;;;15.60
68939;BMP180;59064;45.294;11.816;2023-04-25T11:46:45;100687.40;;;15.80
68939;BMP180;59064;45.294;11.816;2023-04-25T11:49:12;100677.80;;;16.00
68939;BMP180;59064;45.294;11.816;2023-04-25T11:51:42;100690.20;;;16.10
68939;BMP180;59064;45.294;11.816;2023-04-25T11:54:08;100679.20;;;16.50
68939;BMP180;59064;45.294;11.816;2023-04-25T11:56:42;100675.80;;;16.50
68939;BMP180;59064;45.294;11.816;2023-04-25T11:59:07;100675.40;;;16.70
68939;BMP180;59064;45.294;11.816;2023-04-25T12:01:35;100676.00;;;16.80
68939;BMP180;59064;45.294;11.816;2023-04-25T12:06:40;100676.80;;;17.04
68939;BMP180;59064;45.294;11.816;2023-04-25T12:09:09;100675.40;;;17.00
68939;BMP180;59064;45.294;11.816;2023-04-25T12:12:04;100674.20;;;17.10
68939;BMP180;59064;45.294;11.816;2023-04-25T12:14:35;100671.80;;;17.20
68939;BMP180;59064;45.294;11.816;2023-04-25T12:17:02;100672.80;;;17.54
68939;BMP180;59064;45.294;11.816;2023-04-25T12:19:36;100662.00;;;17.84
68939;BMP180;59064;45.294;11.816;2023-04-25T12:22:02;100668.40;;;17.80
68939;BMP180;59064;45.294;11.816;2023-04-25T12:24:28;100665.60;;;17.80
68939;BMP180;59064;45.294;11.816;2023-04-25T12:27:04;100667.80;;;17.84
68939;BMP180;59064;45.294;11.816;2023-04-25T12:29:32;100669.00;;;17.82
68939;BMP180;59064;45.294;11.816;2023-04-25T12:31:58;100670.60;;;17.90
68939;BMP180;59064;45.294;11.816;2023-04-25T12:34:28;100677.00;;;18.26
68939;BMP180;59064;45.294;11.816;2023-04-25T12:36:54;100681.20;;;18.56
68939;BMP180;59064;45.294;11.816;2023-04-25T12:39:21;100685.60;;;18.80
68939;BMP180;59064;45.294;11.816;2023-04-25T12:41:51;100679.20;;;19.02
68939;BMP180;59064;45.294;11.816;2023-04-25T12:44:33;100674.60;;;18.82
68939;BMP180;59064;45.294;11.816;2023-04-25T12:47:01;100674.20;;;18.54
68939;BMP180;59064;45.294;11.816;2023-04-25T12:49:31;100668.40;;;18.18
68939;BMP180;59064;45.294;11.816;2023-04-25T12:51:57;100673.80;;;17.90
68939;BMP180;59064;45.294;11.816;2023-04-25T12:54:23;100673.60;;;17.80
68939;BMP180;59064;45.294;11.816;2023-04-25T12:56:51;100678.20;;;18.00
68939;BMP180;59064;45.294;11.816;2023-04-25T12:59:17;100679.60;;;18.22
68939;BMP180;59064;45.294;11.816;2023-04-25T13:01:43;100676.60;;;18.44
68939;BMP180;59064;45.294;11.816;2023-04-25T13:04:10;100682.60;;;18.64
68939;BMP180;59064;45.294;11.816;2023-04-25T13:06:37;100686.80;;;18.50
68939;BMP180;59064;45.294;11.816;2023-04-25T13:09:03;100682.80;;;18.40
68939;BMP180;59064;45.294;11.816;2023-04-25T13:11:28;100680.80;;;18.20
68939;BMP180;59064;45.294;11.816;2023-04-25T13:13:55;100689.60;;;17.90
68939;BMP180;59064;45.294;11.816;2023-04-25T13:16:21;100690.40;;;17.70
68939;BMP180;59064;45.294;11.816;2023-04-25T13:18:47;100687.80;;;17.66
68939;BMP180;59064;45.294;11.816;2023-04-25T13:21:13;100687.20;;;17.40
68939;BMP180;59064;45.294;11.816;2023-04-25T13:23:40;100690.40;;;17.12
68939;BMP180;59064;45.294;11.816;2023-04-25T13:26:07;100693.80;;;17.00
68939;BMP180;59064;45.294;11.816;2023-04-25T13:28:33;100698.20;;;17.00
68939;BMP180;59064;45.294;11.816;2023-04-25T13:30:58;100692.60;;;17.20
68939;BMP180;59064;45.294;11.816;2023-04-25T13:33:25;100693.40;;;17.48
68939;BMP180;59064;45.294;11.816;2023-04-25T13:35:52;100695.00;;;17.72
68939;BMP180;59064;45.294;11.816;2023-04-25T13:38:23;100691.60;;;17.90
68939;BMP180;59064;45.294;11.816;2023-04-25T13:40:50;100695.00;;;17.72
68939;BMP180;59064;45.294;11.816;2023-04-25T13:43:19;100694.00;;;17.60
68939;BMP180;59064;45.294;11.816;2023-04-25T13:45:46;100690.80;;;17.50
68939;BMP180;59064;45.294;11.816;2023-04-25T13:48:11;100698.20;;;17.40
68939;BMP180;59064;45.294;11.816;2023-04-25T13:50:38;100700.60;;;17.40
68939;BMP180;59064;45.294;11.816;2023-04-25T13:53:03;100695.20;;;17.56
68939;BMP180;59064;45.294;11.816;2023-04-25T13:55:29;100693.40;;;17.70
68939;BMP180;59064;45.294;11.816;2023-04-25T13:57:56;100699.00;;;17.80
68939;BMP180;59064;45.294;11.816;2023-04-25T14:00:23;100701.80;;;17.90